sensor_id;sensor_type;location;lat;lon;timestamp;P1;durP1;ratioP1;P2;durP2;ratioP2
6999;SDS011;3540;53.242;10.408;2023-02-28T00:00:18;9.77;;;5.77;;
6999;SDS011;3540;53.242;10.408;2023-02-28T00:02:45;11.53;;;5.93;;
6999;SDS011;3540;53.242;10.408;2023-02-28T00:05:11;11.67;;;6.17;;
6999;SDS011;3540;53.242;10.408;2023-02-28T00:07:38;13.87;;;6.33;;
6999;SDS011;3540;53.242;10.408;2023-02-28T00:10:04;8.83;;;5.53;;
6999;SDS011;3540;53.242;10.408;2023-02-28T00:12:32;10.83;;;6.57;;
6999;SDS011;3540;53.242;10.408;2023-02-28T00:14:59;13.13;;;6.67;;
6999;SDS011;3540;53.242;10.408;2023-02-28T00:17:24;11.40;;;6.70;;
6999;SDS011;3540;53.242;10.408;2023-02-28T00:19:50;14.43;;;6.77;;
6999;SDS011;3540;53.242;10.408;2023-02-28T00:22:17;15.37;;;6.93;;
6999;SDS011;3540;53.242;10.408;2023-02-28T00:24:44;12.73;;;7.23;;
6999;SDS011;3540;53.242;10.408;2023-02-28T00:27:10;13.07;;;7.27;;
6999;SDS011;3540;53.242;10.408;2023-02-28T00:29:35;16.83;;;7.27;;
6999;SDS011;3540;53.242;10.408;2023-02-28T00:32:01;14.30;;;7.60;;
6999;SDS011;3540;53.242;10.408;2023-02-28T00:34:27;10.80;;;6.83;;
6999;SDS011;3540;53.242;10.408;2023-02-28T00:36:53;14.50;;;6.60;;
6999;SDS011;3540;53.242;10.408;2023-02-28T00:39:18;13.17;;;7.13;;
6999;SDS011;3540;53.242;10.408;2023-02-28T00:41:44;12.30;;;7.10;;
6999;SDS011;3540;53.242;10.408;2023-02-28T00:44:10;15.63;;;7.90;;
6999;SDS011;3540;53.242;10.408;2023-02-28T00:46:36;14.63;;;7.20;;
6999;SDS011;3540;53.242;10.408;2023-02-28T00:49:02;17.33;;;8.40;;
6999;SDS011;3540;53.242;10.408;2023-02-28T00:51:27;13.20;;;7.67;;
6999;SDS011;3540;53.242;10.408;2023-02-28T00:53:53;15.33;;;7.90;;
6999;SDS011;3540;53.242;10.408;2023-02-28T00:56:19;17.07;;;8.17;;
6999;SDS011;3540;53.242;10.408;2023-02-28T00:58:45;15.07;;;7.97;;
6999;SDS011;3540;53.242;10.408;2023-02-28T01:01:10;12.73;;;7.60;;
6999;SDS011;3540;53.242;10.408;2023-02-28T01:03:36;12.77;;;7.60;;
6999;SDS011;3540;53.242;10.408;2023-02-28T01:06:03;12.00;;;7.53;;
6999;SDS011;3540;53.242;10.408;2023-02-28T01:08:29;13.97;;;8.03;;
6999;SDS011;3540;53.242;10.408;2023-02-28T01:10:54;9.73;;;6.17;;
6999;SDS011;3540;53.242;10.408;2023-02-28T01:13:20;15.87;;;7.20;;
6999;SDS011;3540;53.242;10.408;2023-02-28T01:15:51;13.67;;;6.80;;
6999;SDS011;3540;53.242;10.408;2023-02-28T01:18:19;11.73;;;7.03;;
6999;SDS011;3540;53.242;10.408;2023-02-28T01:20:45;12.17;;;6.80;;
6999;SDS011;3540;53.242;10.408;2023-02-28T01:23:11;15.70;;;7.73;;
6999;SDS011;3540;53.242;10.408;2023-02-28T01:25:37;13.53;;;6.83;;
6999;SDS011;3540;53.242;10.408;2023-02-28T01:28:03;13.73;;;6.80;;
6999;SDS011;3540;53.242;10.408;2023-02-28T01:30:30;15.60;;;6.67;;
6999;SDS011;3540;53.242;10.408;2023-02-28T01:32:55;12.57;;;5.90;;
6999;SDS011;3540;53.242;10.408;2023-02-28T01:35:21;10.83;;;6.30;;
6999;SDS011;3540;53.242;10.408;2023-02-28T01:37:46;14.60;;;6.73;;
6999;SDS011;3540;53.242;10.408;2023-02-28T01:40:12;10.80;;;6.23;;
6999;SDS011;3540;53.242;10.408;2023-02-28T01:42:38;14.33;;;6.57;;
6999;SDS011;3540;53.242;10.408;2023-02-28T01:47:51;8.80;;;5.77;;
6999;SDS011;3540;53.242;10.408;2023-02-28T01:50:21;10.23;;;6.57;;
6999;SDS011;3540;53.242;10.408;2023-02-28T01:52:49;13.40;;;6.10;;
6999;SDS011;3540;53.242;10.408;2023-02-28T01:55:16;10.80;;;5.93;;
6999;SDS011;3540;53.242;10.408;2023-02-28T01:57:54;12.70;;;6.10;;
6999;SDS011;3540;53.242;10.408;2023-02-28T02:00:24;12.53;;;6.33;;
6999;SDS011;3540;53.242;10.408;2023-02-28T02:02:55;10.50;;;6.00;;
6999;SDS011;3540;53.242;10.408;2023-02-28T02:05:28;14.80;;;6.33;;
6999;SDS011;3540;53.242;10.408;2023-02-28T02:07:56;12.00;;;5.50;;
6999;SDS011;3540;53.242;10.408;2023-02-28T02:10:31;9.20;;;6.20;;
6999;SDS011;3540;53.242;10.408;2023-02-28T02:15:55;11.43;;;6.00;;
6999;SDS011;3540;53.242;10.408;2023-02-28T02:24:29;10.37;;;5.87;;
6999;SDS011;3540;53.242;10.408;2023-02-28T02:36:03;9.83;;;6.10;;
6999;SDS011;3540;53.242;10.408;2023-02-28T02:41:54;9.90;;;6.00;;
6999;SDS011;3540;53.242;10.408;2023-02-28T02:47:12;12.87;;;5.60;;
6999;SDS011;3540;53.242;10.408;2023-02-28T02:49:42;8.77;;;5.73;;
6999;SDS011;3540;53.242;10.408;2023-02-28T02:52:16;10.83;;;6.10;;
6999;SDS011;3540;53.242;10.408;2023-02-28T02:54:46;11.63;;;6.27;;
6999;SDS011;3540;53.242;10.408;2023-02-28T02:57:17;11.33;;;6.43;;
6999;SDS011;3540;53.242;10.408;2023-02-28T02:59:48;9.90;;;5.97;;
6999;SDS011;3540;53.242;10.408;2023-02-28T03:02:16;13.10;;;6.03;;
6999;SDS011;3540;53.242;10.408;2023-02-28T03:04:49;11.43;;;6.03;;
6999;SDS011;3540;53.242;10.408;2023-02-28T03:07:18;10.73;;;5.80;;
6999;SDS011;3540;53.242;10.408;2023-02-28T03:09:51;12.27;;;6.00;;
6999;SDS011;3540;53.242;10.408;2023-02-28T03:12:17;9.87;;;6.13;;
6999;SDS011;3540;53.242;10.408;2023-02-28T03:14:48;10.10;;;5.87;;
6999;SDS011;3540;53.242;10.408;2023-02-28T03:20:07;11.50;;;5.87;;
6999;SDS011;3540;53.242;10.408;2023-02-28T03:28:08;10.50;;;6.40;;
6999;SDS011;3540;53.242;10.408;2023-02-28T03:30:50;11.70;;;5.77;;
6999;SDS011;3540;53.242;10.408;2023-02-28T03:35:50;10.67;;;5.73;;
6999;SDS011;3540;53.242;10.408;2023-02-28T03:38:45;9.23;;;6.03;;
6999;SDS011;3540;53.242;10.408;2023-02-28T03:41:26;11.27;;;5.80;;
6999;SDS011;3540;53.242;10.408;2023-02-28T03:44:06;9.13;;;5.30;;
6999;SDS011;3540;53.242;10.408;2023-02-28T03:46:41;9.50;;;5.70;;
6999;SDS011;3540;53.242;10.408;2023-02-28T03:49:18;13.53;;;5.63;;
6999;SDS011;3540;53.242;10.408;2023-02-28T03:51:48;10.80;;;5.37;;
6999;SDS011;3540;53.242;10.408;2023-02-28T03:54:17;13.30;;;6.40;;
6999;SDS011;3540;53.242;10.408;2023-02-28T03:59:55;13.30;;;5.73;;
6999;SDS011;3540;53.242;10.408;2023-02-28T04:02:25;11.83;;;5.60;;
6999;SDS011;3540;53.242;10.408;2023-02-28T04:04:52;8.47;;;5.60;;
6999;SDS011;3540;53.242;10.408;2023-02-28T04:07:18;11.10;;;5.67;;
6999;SDS011;3540;53.242;10.408;2023-02-28T04:09:44;7.97;;;5.20;;
6999;SDS011;3540;53.242;10.408;2023-02-28T04:12:10;10.83;;;6.00;;
6999;SDS011;3540;53.242;10.408;2023-02-28T04:14:36;10.57;;;5.50;;
6999;SDS011;3540;53.242;10.408;2023-02-28T04:17:01;9.80;;;5.80;;
6999;SDS011;3540;53.242;10.408;2023-02-28T04:19:27;9.10;;;5.07;;
6999;SDS011;3540;53.242;10.408;2023-02-28T04:21:53;15.07;;;5.47;;
6999;SDS011;3540;53.242;10.408;2023-02-28T04:24:23;8.73;;;5.40;;
6999;SDS011;3540;53.242;10.408;2023-02-28T04:26:51;10.13;;;5.40;;
6999;SDS011;3540;53.242;10.408;2023-02-28T04:29:22;10.83;;;5.60;;
6999;SDS011;3540;53.242;10.408;2023-02-28T04:31:53;10.97;;;4.87;;
6999;SDS011;3540;53.242;10.408;2023-02-28T04:34:20;9.20;;;5.30;;
6999;SDS011;3540;53.242;10.408;2023-02-28T04:36:46;13.07;;;5.50;;
6999;SDS011;3540;53.242;10.408;2023-02-28T04:39:14;9.60;;;5.33;;
6999;SDS011;3540;53.242;10.408;2023-02-28T04:41:40;9.73;;;5.13;;
6999;SDS011;3540;53.242;10.408;2023-02-28T04:44:06;13.50;;;5.53;;
6999;SDS011;3540;53.242;10.408;2023-02-28T04:46:31;9.53;;;4.87;;
6999;SDS011;3540;53.242;10.408;2023-02-28T04:48:57;9.60;;;5.07;;
6999;SDS011;3540;53.242;10.408;2023-02-28T04:51:24;10.57;;;4.77;;
6999;SDS011;3540;53.242;10.408;2023-02-28T04:53:49;7.07;;;4.50;;
6999;SDS011;3540;53.242;10.408;2023-02-28T04:56:15;9.97;;;5.53;;
6999;SDS011;3540;53.242;10.408;2023-02-28T04:58:42;13.87;;;5.07;;
6999;SDS011;3540;53.242;10.408;2023-02-28T05:01:22;9.40;;;5.00;;
6999;SDS011;3540;53.242;10.408;2023-02-28T05:03:53;9.87;;;5.10;;
6999;SDS011;3540;53.242;10.408;2023-02-28T05:06:21;9.50;;;5.10;;
6999;SDS011;3540;53.242;10.408;2023-02-28T05:08:48;8.93;;;4.70;;
6999;SDS011;3540;53.242;10.408;2023-02-28T05:11:16;10.33;;;5.27;;
6999;SDS011;3540;53.242;10.408;2023-02-28T05:13:46;9.83;;;5.47;;
6999;SDS011;3540;53.242;10.408;2023-02-28T05:16:12;8.10;;;4.90;;
6999;SDS011;3540;53.242;10.408;2023-02-28T05:18:38;8.23;;;4.77;;
6999;SDS011;3540;53.242;10.408;2023-02-28T05:21:03;12.23;;;5.60;;
6999;SDS011;3540;53.242;10.408;2023-02-28T05:23:29;8.93;;;4.63;;
6999;SDS011;3540;53.242;10.408;2023-02-28T05:25:55;9.37;;;5.30;;
6999;SDS011;3540;53.242;10.408;2023-02-28T05:28:21;10.07;;;5.17;;
6999;SDS011;3540;53.242;10.408;2023-02-28T05:30:47;9.43;;;4.83;;
6999;SDS011;3540;53.242;10.408;2023-02-28T05:33:13;8.73;;;5.13;;
6999;SDS011;3540;53.242;10.408;2023-02-28T05:35:40;9.23;;;4.87;;
6999;SDS011;3540;53.242;10.408;2023-02-28T05:38:07;7.40;;;4.83;;
6999;SDS011;3540;53.242;10.408;2023-02-28T05:40:33;8.50;;;5.03;;
6999;SDS011;3540;53.242;10.408;2023-02-28T05:42:59;9.40;;;4.90;;
6999;SDS011;3540;53.242;10.408;2023-02-28T05:45:25;11.60;;;5.10;;
6999;SDS011;3540;53.242;10.408;2023-02-28T05:47:54;12.60;;;7.40;;
6999;SDS011;3540;53.242;10.408;2023-02-28T05:50:20;12.40;;;5.73;;
6999;SDS011;3540;53.242;10.408;2023-02-28T05:52:49;8.70;;;5.43;;
6999;SDS011;3540;53.242;10.408;2023-02-28T05:55:15;11.27;;;5.63;;
6999;SDS011;3540;53.242;10.408;2023-02-28T05:57:41;10.70;;;5.53;;
6999;SDS011;3540;53.242;10.408;2023-02-28T06:00:07;11.00;;;5.73;;
6999;SDS011;3540;53.242;10.408;2023-02-28T06:02:33;12.07;;;6.27;;
6999;SDS011;3540;53.242;10.408;2023-02-28T06:04:59;12.10;;;6.20;;
6999;SDS011;3540;53.242;10.408;2023-02-28T06:07:24;15.10;;;6.70;;
6999;SDS011;3540;53.242;10.408;2023-02-28T06:09:50;13.43;;;7.03;;
6999;SDS011;3540;53.242;10.408;2023-02-28T06:12:16;11.50;;;6.43;;
6999;SDS011;3540;53.242;10.408;2023-02-28T06:14:42;12.07;;;5.63;;
6999;SDS011;3540;53.242;10.408;2023-02-28T06:17:08;15.27;;;5.57;;
6999;SDS011;3540;53.242;10.408;2023-02-28T06:19:36;9.13;;;4.90;;
6999;SDS011;3540;53.242;10.408;2023-02-28T06:22:03;9.83;;;4.83;;
6999;SDS011;3540;53.242;10.408;2023-02-28T06:24:29;10.60;;;5.43;;
6999;SDS011;3540;53.242;10.408;2023-02-28T06:26:56;7.47;;;4.83;;
6999;SDS011;3540;53.242;10.408;2023-02-28T06:29:23;8.63;;;5.20;;
6999;SDS011;3540;53.242;10.408;2023-02-28T06:31:50;9.13;;;5.17;;
6999;SDS011;3540;53.242;10.408;2023-02-28T06:34:16;9.00;;;4.77;;
6999;SDS011;3540;53.242;10.408;2023-02-28T06:36:42;7.67;;;4.57;;
6999;SDS011;3540;53.242;10.408;2023-02-28T06:39:08;8.63;;;5.00;;
6999;SDS011;3540;53.242;10.408;2023-02-28T06:41:34;11.67;;;4.77;;
6999;SDS011;3540;53.242;10.408;2023-02-28T06:44:03;8.75;;;5.10;;
6999;SDS011;3540;53.242;10.408;2023-02-28T06:46:30;10.23;;;4.67;;
6999;SDS011;3540;53.242;10.408;2023-02-28T06:48:57;8.20;;;5.03;;
6999;SDS011;3540;53.242;10.408;2023-02-28T06:51:22;12.27;;;5.70;;
6999;SDS011;3540;53.242;10.408;2023-02-28T06:53:49;12.50;;;5.40;;
6999;SDS011;3540;53.242;10.408;2023-02-28T06:56:15;13.50;;;5.33;;
6999;SDS011;3540;53.242;10.408;2023-02-28T06:58:45;12.23;;;5.50;;
6999;SDS011;3540;53.242;10.408;2023-02-28T07:01:15;10.10;;;4.90;;
6999;SDS011;3540;53.242;10.408;2023-02-28T07:03:42;8.63;;;4.77;;
6999;SDS011;3540;53.242;10.408;2023-02-28T07:06:07;10.67;;;4.73;;
6999;SDS011;3540;53.242;10.408;2023-02-28T07:08:33;7.17;;;4.80;;
6999;SDS011;3540;53.242;10.408;2023-02-28T07:11:00;10.63;;;5.17;;
6999;SDS011;3540;53.242;10.408;2023-02-28T07:13:26;11.53;;;5.00;;
6999;SDS011;3540;53.242;10.408;2023-02-28T07:15:55;11.67;;;5.07;;
6999;SDS011;3540;53.242;10.408;2023-02-28T07:18:23;7.90;;;4.97;;
6999;SDS011;3540;53.242;10.408;2023-02-28T07:20:48;10.10;;;5.33;;
6999;SDS011;3540;53.242;10.408;2023-02-28T07:23:15;9.10;;;5.10;;
6999;SDS011;3540;53.242;10.408;2023-02-28T07:25:40;10.03;;;5.37;;
6999;SDS011;3540;53.242;10.408;2023-02-28T07:28:06;8.40;;;5.10;;
6999;SDS011;3540;53.242;10.408;2023-02-28T07:30:31;12.43;;;5.37;;
6999;SDS011;3540;53.242;10.408;2023-02-28T07:32:57;10.37;;;5.77;;
6999;SDS011;3540;53.242;10.408;2023-02-28T07:35:23;10.47;;;5.67;;
6999;SDS011;3540;53.242;10.408;2023-02-28T07:37:48;9.90;;;5.77;;
6999;SDS011;3540;53.242;10.408;2023-02-28T07:40:14;10.80;;;5.70;;
6999;SDS011;3540;53.242;10.408;2023-02-28T07:42:40;10.17;;;5.77;;
6999;SDS011;3540;53.242;10.408;2023-02-28T07:45:07;10.00;;;6.03;;
6999;SDS011;3540;53.242;10.408;2023-02-28T07:47:36;11.40;;;6.03;;
6999;SDS011;3540;53.242;10.408;2023-02-28T07:50:06;9.17;;;5.80;;
6999;SDS011;3540;53.242;10.408;2023-02-28T07:52:33;13.90;;;6.10;;
6999;SDS011;3540;53.242;10.408;2023-02-28T07:54:59;14.37;;;5.90;;
6999;SDS011;3540;53.242;10.408;2023-02-28T07:57:25;12.80;;;5.83;;
6999;SDS011;3540;53.242;10.408;2023-02-28T07:59:50;8.40;;;5.60;;
6999;SDS011;3540;53.242;10.408;2023-02-28T08:02:17;8.20;;;5.43;;
6999;SDS011;3540;53.242;10.408;2023-02-28T08:04:43;8.67;;;5.10;;
6999;SDS011;3540;53.242;10.408;2023-02-28T08:07:09;8.60;;;5.37;;
6999;SDS011;3540;53.242;10.408;2023-02-28T08:09:38;8.87;;;5.73;;
6999;SDS011;3540;53.242;10.408;2023-02-28T08:12:04;9.20;;;5.83;;
6999;SDS011;3540;53.242;10.408;2023-02-28T08:14:31;9.87;;;5.13;;
6999;SDS011;3540;53.242;10.408;2023-02-28T08:16:56;10.70;;;5.00;;
6999;SDS011;3540;53.242;10.408;2023-02-28T08:19:25;7.63;;;5.33;;
6999;SDS011;3540;53.242;10.408;2023-02-28T08:21:51;8.27;;;5.10;;
6999;SDS011;3540;53.242;10.408;2023-02-28T08:24:16;8.60;;;5.40;;
6999;SDS011;3540;53.242;10.408;2023-02-28T08:26:42;10.07;;;5.33;;
6999;SDS011;3540;53.242;10.408;2023-02-28T08:29:08;9.27;;;5.10;;
6999;SDS011;3540;53.242;10.408;2023-02-28T08:31:34;8.20;;;4.97;;
6999;SDS011;3540;53.242;10.408;2023-02-28T08:34:04;8.53;;;5.23;;
6999;SDS011;3540;53.242;10.408;2023-02-28T08:36:34;8.80;;;5.10;;
6999;SDS011;3540;53.242;10.408;2023-02-28T08:39:00;7.93;;;4.70;;
6999;SDS011;3540;53.242;10.408;2023-02-28T08:41:26;7.73;;;4.90;;
6999;SDS011;3540;53.242;10.408;2023-02-28T08:43:52;8.17;;;5.20;;
6999;SDS011;3540;53.242;10.408;2023-02-28T08:46:18;6.33;;;4.60;;
6999;SDS011;3540;53.242;10.408;2023-02-28T08:48:44;8.37;;;4.80;;
6999;SDS011;3540;53.242;10.408;2023-02-28T08:51:11;9.27;;;4.60;;
6999;SDS011;3540;53.242;10.408;2023-02-28T08:53:41;8.17;;;4.50;;
6999;SDS011;3540;53.242;10.408;2023-02-28T08:56:08;7.27;;;3.93;;
6999;SDS011;3540;53.242;10.408;2023-02-28T08:58:35;5.53;;;4.00;;
6999;SDS011;3540;53.242;10.408;2023-02-28T09:01:07;8.17;;;4.27;;
6999;SDS011;3540;53.242;10.408;2023-02-28T09:03:37;6.60;;;4.30;;
6999;SDS011;3540;53.242;10.408;2023-02-28T09:06:03;6.83;;;3.90;;
6999;SDS011;3540;53.242;10.408;2023-02-28T09:08:30;6.80;;;3.80;;
6999;SDS011;3540;53.242;10.408;2023-02-28T09:10:56;7.20;;;3.97;;
6999;SDS011;3540;53.242;10.408;2023-02-28T09:13:23;10.47;;;3.60;;
6999;SDS011;3540;53.242;10.408;2023-02-28T09:15:49;5.50;;;4.17;;
6999;SDS011;3540;53.242;10.408;2023-02-28T09:18:15;5.80;;;3.67;;
6999;SDS011;3540;53.242;10.408;2023-02-28T09:20:43;8.10;;;4.27;;
6999;SDS011;3540;53.242;10.408;2023-02-28T09:23:12;6.67;;;3.40;;
6999;SDS011;3540;53.242;10.408;2023-02-28T09:25:44;4.67;;;3.23;;
6999;SDS011;3540;53.242;10.408;2023-02-28T09:28:14;4.63;;;3.17;;
6999;SDS011;3540;53.242;10.408;2023-02-28T09:30:41;4.93;;;2.97;;
6999;SDS011;3540;53.242;10.408;2023-02-28T09:33:07;5.93;;;2.70;;
6999;SDS011;3540;53.242;10.408;2023-02-28T09:35:33;4.73;;;2.70;;
6999;SDS011;3540;53.242;10.408;2023-02-28T09:37:58;4.80;;;3.00;;
6999;SDS011;3540;53.242;10.408;2023-02-28T09:40:24;4.33;;;2.80;;
6999;SDS011;3540;53.242;10.408;2023-02-28T09:42:52;7.07;;;2.90;;
6999;SDS011;3540;53.242;10.408;2023-02-28T09:45:30;5.50;;;2.87;;
6999;SDS011;3540;53.242;10.408;2023-02-28T09:47:59;5.47;;;2.80;;
6999;SDS011;3540;53.242;10.408;2023-02-28T09:50:35;5.17;;;3.10;;
6999;SDS011;3540;53.242;10.408;2023-02-28T09:53:11;4.83;;;2.57;;
6999;SDS011;3540;53.242;10.408;2023-02-28T09:55:48;6.67;;;2.53;;
6999;SDS011;3540;53.242;10.408;2023-02-28T09:58:28;5.50;;;2.27;;
6999;SDS011;3540;53.242;10.408;2023-02-28T10:07:30;2.70;;;1.90;;
6999;SDS011;3540;53.242;10.408;2023-02-28T10:10:18;6.73;;;1.70;;
6999;SDS011;3540;53.242;10.408;2023-02-28T10:13:16;1.53;;;1.30;;
6999;SDS011;3540;53.242;10.408;2023-02-28T10:15:50;2.57;;;1.50;;
6999;SDS011;3540;53.242;10.408;2023-02-28T10:18:20;2.63;;;1.40;;
6999;SDS011;3540;53.242;10.408;2023-02-28T10:20:49;3.23;;;1.50;;
6999;SDS011;3540;53.242;10.408;2023-02-28T10:23:25;3.80;;;2.23;;
6999;SDS011;3540;53.242;10.408;2023-02-28T10:26:09;3.23;;;1.83;;
6999;SDS011;3540;53.242;10.408;2023-02-28T10:28:37;9.97;;;2.10;;
6999;SDS011;3540;53.242;10.408;2023-02-28T10:31:03;2.87;;;1.97;;
6999;SDS011;3540;53.242;10.408;2023-02-28T10:33:33;2.17;;;1.97;;
6999;SDS011;3540;53.242;10.408;2023-02-28T10:35:59;3.80;;;2.40;;
6999;SDS011;3540;53.242;10.408;2023-02-28T10:38:36;3.50;;;2.20;;
6999;SDS011;3540;53.242;10.408;2023-02-28T10:43:34;5.30;;;2.33;;
6999;SDS011;3540;53.242;10.408;2023-02-28T10:46:09;4.40;;;2.30;;
6999;SDS011;3540;53.242;10.408;2023-02-28T10:51:37;3.87;;;2.13;;
6999;SDS011;3540;53.242;10.408;2023-02-28T10:54:05;3.40;;;2.20;;
6999;SDS011;3540;53.242;10.408;2023-02-28T10:56:38;4.10;;;2.33;;
6999;SDS011;3540;53.242;10.408;2023-02-28T11:01:40;5.93;;;2.60;;
6999;SDS011;3540;53.242;10.408;2023-02-28T11:04:18;6.93;;;2.50;;
6999;SDS011;3540;53.242;10.408;2023-02-28T11:06:47;3.53;;;2.30;;
6999;SDS011;3540;53.242;10.408;2023-02-28T11:11:57;3.47;;;2.30;;
6999;SDS011;3540;53.242;10.408;2023-02-28T11:14:30;3.10;;;2.47;;
6999;SDS011;3540;53.242;10.408;2023-02-28T11:17:00;3.53;;;2.20;;
6999;SDS011;3540;53.242;10.408;2023-02-28T11:19:39;2.93;;;1.90;;
6999;SDS011;3540;53.242;10.408;2023-02-28T11:22:11;2.73;;;1.90;;
6999;SDS011;3540;53.242;10.408;2023-02-28T11:24:44;2.97;;;1.20;;
6999;SDS011;3540;53.242;10.408;2023-02-28T11:27:57;2.40;;;1.47;;
6999;SDS011;3540;53.242;10.408;2023-02-28T11:30:02;2.67;;;1.33;;
6999;SDS011;3540;53.242;10.408;2023-02-28T11:32:29;3.40;;;1.50;;
6999;SDS011;3540;53.242;10.408;2023-02-28T11:37:36;5.33;;;1.67;;
6999;SDS011;3540;53.242;10.408;2023-02-28T11:40:21;3.47;;;1.97;;
6999;SDS011;3540;53.242;10.408;2023-02-28T11:49:02;2.83;;;1.73;;
6999;SDS011;3540;53.242;10.408;2023-02-28T11:51:59;3.83;;;1.73;;
6999;SDS011;3540;53.242;10.408;2023-02-28T11:59:55;4.60;;;1.50;;
6999;SDS011;3540;53.242;10.408;2023-02-28T12:02:42;2.17;;;1.40;;
6999;SDS011;3540;53.242;10.408;2023-02-28T12:05:34;2.23;;;1.33;;
6999;SDS011;3540;53.242;10.408;2023-02-28T12:10:37;3.07;;;1.40;;
6999;SDS011;3540;53.242;10.408;2023-02-28T12:13:21;2.20;;;1.30;;
6999;SDS011;3540;53.242;10.408;2023-02-28T12:16:01;3.30;;;1.50;;
6999;SDS011;3540;53.242;10.408;2023-02-28T12:21:40;3.60;;;1.40;;
6999;SDS011;3540;53.242;10.408;2023-02-28T12:27:17;1.53;;;1.30;;
6999;SDS011;3540;53.242;10.408;2023-02-28T12:29:49;2.87;;;1.53;;
6999;SDS011;3540;53.242;10.408;2023-02-28T12:32:39;2.50;;;1.63;;
6999;SDS011;3540;53.242;10.408;2023-02-28T12:37:36;2.10;;;1.53;;
6999;SDS011;3540;53.242;10.408;2023-02-28T12:40:23;2.67;;;1.60;;
6999;SDS011;3540;53.242;10.408;2023-02-28T12:42:58;3.40;;;1.70;;
6999;SDS011;3540;53.242;10.408;2023-02-28T12:46:14;2.00;;;1.53;;
6999;SDS011;3540;53.242;10.408;2023-02-28T12:48:18;3.50;;;1.93;;
6999;SDS011;3540;53.242;10.408;2023-02-28T12:50:49;3.83;;;1.73;;
6999;SDS011;3540;53.242;10.408;2023-02-28T12:53:32;5.07;;;2.37;;
6999;SDS011;3540;53.242;10.408;2023-02-28T12:58:56;3.13;;;1.40;;
6999;SDS011;3540;53.242;10.408;2023-02-28T13:09:39;4.17;;;1.60;;
6999;SDS011;3540;53.242;10.408;2023-02-28T13:12:15;3.63;;;1.70;;
6999;SDS011;3540;53.242;10.408;2023-02-28T13:14:41;1.80;;;1.57;;
6999;SDS011;3540;53.242;10.408;2023-02-28T13:25:00;3.10;;;1.83;;
6999;SDS011;3540;53.242;10.408;2023-02-28T13:27:33;4.40;;;1.67;;
6999;SDS011;3540;53.242;10.408;2023-02-28T13:33:29;2.30;;;1.87;;
6999;SDS011;3540;53.242;10.408;2023-02-28T13:38:33;3.70;;;1.70;;
6999;SDS011;3540;53.242;10.408;2023-02-28T13:43:59;4.17;;;2.20;;
6999;SDS011;3540;53.242;10.408;2023-02-28T13:46:32;3.47;;;1.87;;
6999;SDS011;3540;53.242;10.408;2023-02-28T14:00:02;3.23;;;1.77;;
6999;SDS011;3540;53.242;10.408;2023-02-28T14:03:08;5.70;;;2.00;;
6999;SDS011;3540;53.242;10.408;2023-02-28T14:05:48;3.97;;;1.50;;
6999;SDS011;3540;53.242;10.408;2023-02-28T14:09:01;4.27;;;1.60;;
6999;SDS011;3540;53.242;10.408;2023-02-28T14:11:33;2.07;;;1.50;;
6999;SDS011;3540;53.242;10.408;2023-02-28T14:14:00;4.17;;;1.60;;
6999;SDS011;3540;53.242;10.408;2023-02-28T14:16:38;2.63;;;1.93;;
6999;SDS011;3540;53.242;10.408;2023-02-28T14:37:41;3.97;;;1.60;;
6999;SDS011;3540;53.242;10.408;2023-02-28T14:40:19;18.17;;;8.73;;
6999;SDS011;3540;53.242;10.408;2023-02-28T14:42:55;2.70;;;1.43;;
6999;SDS011;3540;53.242;10.408;2023-02-28T14:45:30;3.30;;;1.30;;
6999;SDS011;3540;53.242;10.408;2023-02-28T14:48:02;2.23;;;1.57;;
6999;SDS011;3540;53.242;10.408;2023-02-28T14:50:34;1.77;;;1.30;;
6999;SDS011;3540;53.242;10.408;2023-02-28T14:53:02;3.07;;;1.67;;
6999;SDS011;3540;53.242;10.408;2023-02-28T14:55:35;1.47;;;1.30;;
6999;SDS011;3540;53.242;10.408;2023-02-28T14:58:02;2.80;;;1.47;;
6999;SDS011;3540;53.242;10.408;2023-02-28T15:00:32;1.23;;;1.13;;
6999;SDS011;3540;53.242;10.408;2023-02-28T15:03:00;2.20;;;1.50;;
6999;SDS011;3540;53.242;10.408;2023-02-28T15:05:42;3.70;;;1.47;;
6999;SDS011;3540;53.242;10.408;2023-02-28T15:08:15;3.10;;;1.57;;
6999;SDS011;3540;53.242;10.408;2023-02-28T15:11:03;2.00;;;1.50;;
6999;SDS011;3540;53.242;10.408;2023-02-28T15:13:39;1.50;;;1.40;;
6999;SDS011;3540;53.242;10.408;2023-02-28T15:16:11;3.23;;;1.60;;
6999;SDS011;3540;53.242;10.408;2023-02-28T15:18:49;3.00;;;1.77;;
6999;SDS011;3540;53.242;10.408;2023-02-28T15:21:36;5.60;;;2.03;;
6999;SDS011;3540;53.242;10.408;2023-02-28T15:26:56;4.50;;;1.40;;
6999;SDS011;3540;53.242;10.408;2023-02-28T15:29:24;2.43;;;1.40;;
6999;SDS011;3540;53.242;10.408;2023-02-28T15:40:12;2.93;;;1.60;;
6999;SDS011;3540;53.242;10.408;2023-02-28T15:42:41;3.77;;;1.60;;
6999;SDS011;3540;53.242;10.408;2023-02-28T15:45:28;4.43;;;2.40;;
6999;SDS011;3540;53.242;10.408;2023-02-28T15:47:59;5.27;;;2.40;;
6999;SDS011;3540;53.242;10.408;2023-02-28T15:50:28;4.40;;;1.50;;
6999;SDS011;3540;53.242;10.408;2023-02-28T15:52:54;3.40;;;1.70;;
6999;SDS011;3540;53.242;10.408;2023-02-28T15:55:21;3.00;;;1.80;;
6999;SDS011;3540;53.242;10.408;2023-02-28T15:57:50;2.37;;;1.50;;
6999;SDS011;3540;53.242;10.408;2023-02-28T16:00:20;3.07;;;1.40;;
6999;SDS011;3540;53.242;10.408;2023-02-28T16:02:48;2.37;;;1.80;;
6999;SDS011;3540;53.242;10.408;2023-02-28T16:07:53;3.20;;;1.63;;
6999;SDS011;3540;53.242;10.408;2023-02-28T16:10:20;2.97;;;1.70;;
6999;SDS011;3540;53.242;10.408;2023-02-28T16:12:50;9.50;;;5.50;;
6999;SDS011;3540;53.242;10.408;2023-02-28T16:15:19;9.43;;;5.70;;
6999;SDS011;3540;53.242;10.408;2023-02-28T16:17:46;3.30;;;2.23;;
6999;SDS011;3540;53.242;10.408;2023-02-28T16:20:17;7.37;;;4.50;;
6999;SDS011;3540;53.242;10.408;2023-02-28T16:22:44;21.50;;;11.67;;
6999;SDS011;3540;53.242;10.408;2023-02-28T16:25:11;16.50;;;8.83;;
6999;SDS011;3540;53.242;10.408;2023-02-28T16:27:41;14.90;;;7.73;;
6999;SDS011;3540;53.242;10.408;2023-02-28T16:30:17;22.27;;;11.00;;
6999;SDS011;3540;53.242;10.408;2023-02-28T16:32:50;40.23;;;15.80;;
6999;SDS011;3540;53.242;10.408;2023-02-28T16:35:17;49.87;;;16.67;;
6999;SDS011;3540;53.242;10.408;2023-02-28T16:37:44;7.20;;;3.33;;
6999;SDS011;3540;53.242;10.408;2023-02-28T16:40:13;2.53;;;1.90;;
6999;SDS011;3540;53.242;10.408;2023-02-28T16:42:41;7.20;;;3.40;;
6999;SDS011;3540;53.242;10.408;2023-02-28T16:45:14;19.93;;;8.03;;
6999;SDS011;3540;53.242;10.408;2023-02-28T16:47:43;41.03;;;16.27;;
6999;SDS011;3540;53.242;10.408;2023-02-28T16:50:12;46.70;;;17.10;;
6999;SDS011;3540;53.242;10.408;2023-02-28T16:52:49;19.20;;;7.20;;
6999;SDS011;3540;53.242;10.408;2023-02-28T16:55:17;8.37;;;4.30;;
6999;SDS011;3540;53.242;10.408;2023-02-28T16:57:43;6.77;;;3.63;;
6999;SDS011;3540;53.242;10.408;2023-02-28T17:00:12;4.43;;;2.73;;
6999;SDS011;3540;53.242;10.408;2023-02-28T17:02:39;6.33;;;2.33;;
6999;SDS011;3540;53.242;10.408;2023-02-28T17:05:05;6.00;;;3.17;;
6999;SDS011;3540;53.242;10.408;2023-02-28T17:07:31;8.83;;;3.53;;
6999;SDS011;3540;53.242;10.408;2023-02-28T17:09:57;6.47;;;3.30;;
6999;SDS011;3540;53.242;10.408;2023-02-28T17:12:24;7.07;;;3.80;;
6999;SDS011;3540;53.242;10.408;2023-02-28T17:14:49;4.37;;;2.93;;
6999;SDS011;3540;53.242;10.408;2023-02-28T17:17:16;6.83;;;3.27;;
6999;SDS011;3540;53.242;10.408;2023-02-28T17:19:44;5.13;;;3.03;;
6999;SDS011;3540;53.242;10.408;2023-02-28T17:22:10;4.20;;;3.00;;
6999;SDS011;3540;53.242;10.408;2023-02-28T17:24:35;4.80;;;3.33;;
6999;SDS011;3540;53.242;10.408;2023-02-28T17:27:01;4.53;;;3.40;;
6999;SDS011;3540;53.242;10.408;2023-02-28T17:29:27;3.17;;;2.77;;
6999;SDS011;3540;53.242;10.408;2023-02-28T17:31:53;5.07;;;3.07;;
6999;SDS011;3540;53.242;10.408;2023-02-28T17:34:18;8.23;;;4.73;;
6999;SDS011;3540;53.242;10.408;2023-02-28T17:36:49;27.43;;;12.73;;
6999;SDS011;3540;53.242;10.408;2023-02-28T17:39:15;45.40;;;20.23;;
6999;SDS011;3540;53.242;10.408;2023-02-28T17:41:52;30.97;;;13.80;;
6999;SDS011;3540;53.242;10.408;2023-02-28T17:44:18;17.43;;;8.97;;